Terminal Aerodrome Forecast
Issued by NWS St Louis, MO

Home | Current Version | Previous Version | Graphics & Text | Print | Product List | Glossary On
Versions: 1 2 3 4 5 6 7 8 9 10 11 12 13 14 15 16 17 18 19 20 21 22
694
FTUS43 KLSX 092056 AAA
TAFSTL
TAF AMD
KSTL 092056Z 0921/1024 30006KT P6SM FEW035 BKN120
     FM100100 00000KT P6SM SCT200
     FM101400 16006KT P6SM BKN110=

USA.gov is the U.S. government's official web portal to all federal, state and local government web resources and services.